createdAt,value
2022-09-03T00:01:55.159Z,1.60
2022-09-03T00:04:29.702Z,1.80
2022-09-03T00:07:05.277Z,1.77
2022-09-03T00:09:39.742Z,2.08
2022-09-03T00:12:14.126Z,1.73
2022-09-03T00:14:47.105Z,1.77
2022-09-03T00:17:16.922Z,1.70
2022-09-03T00:19:54.815Z,2.22
2022-09-03T00:22:28.346Z,1.55
2022-09-03T00:25:00.354Z,2.22
2022-09-03T00:27:29.792Z,1.50
2022-09-03T00:30:02.034Z,1.63
2022-09-03T00:32:40.053Z,1.38
2022-09-03T00:35:16.820Z,1.90
2022-09-03T00:37:45.815Z,1.60
2022-09-03T00:40:24.892Z,1.42
2022-09-03T00:43:02.848Z,1.67
2022-09-03T00:45:38.565Z,1.75
2022-09-03T00:48:21.133Z,1.80
2022-09-03T00:51:10.566Z,1.55
2022-09-03T00:53:48.459Z,1.65
2022-09-03T00:56:27.420Z,1.17
2022-09-03T00:59:04.933Z,1.50
2022-09-03T01:01:41.666Z,1.50
2022-09-03T01:04:32.848Z,1.55
2022-09-03T01:07:10.020Z,1.75
2022-09-03T01:09:51.066Z,1.40
2022-09-03T01:12:32.982Z,1.77
2022-09-03T01:15:08.298Z,1.52
2022-09-03T01:17:50.454Z,1.75
2022-09-03T01:20:34.834Z,2.50
2022-09-03T01:23:36.002Z,1.45
2022-09-03T01:26:22.815Z,1.45
2022-09-03T01:29:05.522Z,1.80
2022-09-03T01:31:37.989Z,1.52
2022-09-03T01:34:17.776Z,1.48
2022-09-03T01:36:53.542Z,1.25
2022-09-03T01:39:31.340Z,1.75
2022-09-03T01:42:15.926Z,1.23
2022-09-03T01:45:19.856Z,1.50
2022-09-03T01:48:06.102Z,1.50
2022-09-03T01:50:43.727Z,1.60
2022-09-03T01:53:30.119Z,1.50
2022-09-03T01:56:12.362Z,1.20
2022-09-03T01:58:45.335Z,1.48
2022-09-03T02:01:20.912Z,1.13
2022-09-03T02:03:49.881Z,1.23
2022-09-03T02:06:20.690Z,1.33
2022-09-03T02:08:48.411Z,1.42
2022-09-03T02:11:15.990Z,1.77
2022-09-03T02:13:46.710Z,1.35
2022-09-03T02:16:19.501Z,1.27
2022-09-03T02:18:51.996Z,1.10
2022-09-03T02:21:22.536Z,1.23
2022-09-03T02:23:50.616Z,1.40
2022-09-03T02:26:22.201Z,1.15
2022-09-03T02:28:51.373Z,1.33
2022-09-03T02:31:20.666Z,1.70
2022-09-03T02:33:50.065Z,1.20
2022-09-03T02:36:21.471Z,1.27
2022-09-03T02:38:49.984Z,1.27
2022-09-03T02:41:17.738Z,1.50
2022-09-03T02:43:50.990Z,1.15
2022-09-03T02:46:26.950Z,1.63
2022-09-03T02:48:54.895Z,1.20
2022-09-03T02:51:22.588Z,1.38
2022-09-03T02:53:50.229Z,1.30
2022-09-03T02:56:19.085Z,1.35
2022-09-03T02:58:46.673Z,1.20
2022-09-03T03:01:21.779Z,1.10
2022-09-03T03:03:53.734Z,1.40
2022-09-03T03:06:22.133Z,1.15
2022-09-03T03:08:50.697Z,1.20
2022-09-03T03:11:19.834Z,1.27
2022-09-03T03:13:47.890Z,1.35
2022-09-03T03:16:17.054Z,1.30
2022-09-03T03:18:46.137Z,1.05
2022-09-03T03:21:16.837Z,1.52
2022-09-03T03:23:44.839Z,1.10
2022-09-03T03:26:13.934Z,1.27
2022-09-03T03:28:42.247Z,1.20
2022-09-03T03:31:12.031Z,1.20
2022-09-03T03:33:39.756Z,1.35
2022-09-03T03:36:09.092Z,1.20
2022-09-03T03:38:38.466Z,1.20
2022-09-03T03:41:10.640Z,1.67
2022-09-03T03:43:38.979Z,1.00
2022-09-03T03:46:06.783Z,1.30
2022-09-03T03:48:35.521Z,1.00
2022-09-03T03:51:06.654Z,1.05
2022-09-03T03:53:34.620Z,1.30
2022-09-03T03:56:06.254Z,1.10
2022-09-03T03:58:34.978Z,2.17
2022-09-03T04:01:06.384Z,1.02
2022-09-03T04:03:34.134Z,1.48
2022-09-03T04:06:02.693Z,1.00
2022-09-03T04:08:30.463Z,1.38
2022-09-03T04:11:01.649Z,1.77
2022-09-03T04:13:31.916Z,1.40
2022-09-03T04:16:03.507Z,1.48
2022-09-03T04:18:31.924Z,1.00
2022-09-03T04:21:04.506Z,1.08
2022-09-03T04:23:32.832Z,1.25
2022-09-03T04:26:00.888Z,1.13
2022-09-03T04:28:29.189Z,1.30
2022-09-03T04:31:02.905Z,1.17
2022-09-03T04:33:30.819Z,1.35
2022-09-03T04:36:10.519Z,1.17
2022-09-03T04:38:40.034Z,1.40
2022-09-03T04:41:11.864Z,1.42
2022-09-03T04:43:40.061Z,1.00
2022-09-03T04:46:16.222Z,1.00
2022-09-03T04:48:48.905Z,0.98
2022-09-03T04:51:18.750Z,1.30
2022-09-03T04:53:48.884Z,1.00
2022-09-03T04:56:18.593Z,1.75
2022-09-03T04:58:46.604Z,1.20
2022-09-03T05:01:21.712Z,1.77
2022-09-03T05:03:52.215Z,1.48
2022-09-03T05:06:20.534Z,1.05
2022-09-03T05:08:49.639Z,0.90
2022-09-03T05:11:18.804Z,0.93
2022-09-03T05:13:48.898Z,1.40
2022-09-03T05:16:17.605Z,1.40
2022-09-03T05:18:47.310Z,1.20
2022-09-03T05:21:17.185Z,1.73
2022-09-03T05:23:46.881Z,1.50
2022-09-03T05:26:16.225Z,0.80
2022-09-03T05:28:45.253Z,1.42
2022-09-03T05:31:14.407Z,1.20
2022-09-03T05:33:44.120Z,1.02
2022-09-03T05:36:14.844Z,0.98
2022-09-03T05:38:43.205Z,2.08
2022-09-03T05:41:12.800Z,1.17
2022-09-03T05:43:40.809Z,0.88
2022-09-03T05:46:11.342Z,1.10
2022-09-03T05:48:40.823Z,1.05
2022-09-03T05:51:10.049Z,1.13
2022-09-03T05:53:40.150Z,1.05
2022-09-03T05:56:10.783Z,0.60
2022-09-03T05:58:40.745Z,1.13
2022-09-03T06:01:13.056Z,1.50
2022-09-03T06:03:40.967Z,1.17
2022-09-03T06:06:09.302Z,1.40
2022-09-03T06:08:38.600Z,1.15
2022-09-03T06:11:08.012Z,1.50
2022-09-03T06:13:36.416Z,0.80
2022-09-03T06:16:09.121Z,1.15
2022-09-03T06:18:36.987Z,1.42
2022-09-03T06:21:07.016Z,1.10
2022-09-03T06:23:36.437Z,1.48
2022-09-03T06:26:07.850Z,1.35
2022-09-03T06:28:37.789Z,1.30
2022-09-03T06:31:07.551Z,1.15
2022-09-03T06:33:37.286Z,1.25
2022-09-03T06:36:08.987Z,1.20
2022-09-03T06:38:38.846Z,1.30
2022-09-03T06:41:10.289Z,1.65
2022-09-03T06:43:39.150Z,1.50
2022-09-03T06:46:08.673Z,1.83
2022-09-03T06:48:37.467Z,1.80
2022-09-03T06:51:07.150Z,1.30
2022-09-03T06:53:37.315Z,1.35
2022-09-03T06:56:08.808Z,1.38
2022-09-03T06:58:38.469Z,1.65
2022-09-03T07:01:07.745Z,1.30
2022-09-03T07:03:38.414Z,1.50
2022-09-03T07:06:08.776Z,1.45
2022-09-03T07:08:37.311Z,1.60
2022-09-03T07:11:09.078Z,1.40
2022-09-03T07:13:40.490Z,1.25
2022-09-03T07:16:10.281Z,1.15
2022-09-03T07:18:38.562Z,1.40
2022-09-03T07:21:08.311Z,1.40
2022-09-03T07:23:37.707Z,1.67
2022-09-03T07:26:07.552Z,1.80
2022-09-03T07:28:38.740Z,1.70
2022-09-03T07:31:10.606Z,1.50
2022-09-03T07:33:38.529Z,1.63
2022-09-03T07:36:07.998Z,1.73
2022-09-03T07:38:36.700Z,1.77
2022-09-03T07:41:06.179Z,1.55
2022-09-03T07:43:36.462Z,1.65
2022-09-03T07:46:06.960Z,1.92
2022-09-03T07:48:37.477Z,1.83
2022-09-03T07:51:05.427Z,1.38
2022-09-03T07:53:33.441Z,1.30
2022-09-03T07:56:05.825Z,1.85
2022-09-03T07:58:35.577Z,1.60
2022-09-03T08:01:08.866Z,1.25
2022-09-03T08:03:40.498Z,1.63
2022-09-03T08:06:09.316Z,1.52
2022-09-03T08:08:38.231Z,1.60
2022-09-03T08:11:10.277Z,1.65
2022-09-03T08:13:40.707Z,1.98
2022-09-03T08:16:10.737Z,2.03
2022-09-03T08:18:40.471Z,3.38
2022-09-03T08:21:10.222Z,1.95
2022-09-03T08:23:38.792Z,1.70
2022-09-03T08:26:07.602Z,1.70
2022-09-03T08:28:36.294Z,1.75
2022-09-03T08:31:10.079Z,1.35
2022-09-03T08:33:40.535Z,1.40
2022-09-03T08:36:10.574Z,1.55
2022-09-03T08:38:38.199Z,1.67
2022-09-03T08:41:10.305Z,2.30
2022-09-03T08:43:54.097Z,1.60
2022-09-03T08:46:25.913Z,1.90
2022-09-03T08:48:58.045Z,1.60
2022-09-03T08:51:28.376Z,1.80
2022-09-03T08:53:57.714Z,1.92
2022-09-03T08:56:29.110Z,2.30
2022-09-03T08:58:56.791Z,1.80
2022-09-03T09:01:38.354Z,1.70
2022-09-03T09:04:19.685Z,1.80
2022-09-03T09:06:54.746Z,1.20
2022-09-03T09:09:33.854Z,1.90
2022-09-03T09:12:16.080Z,1.45
2022-09-03T09:14:53.625Z,1.40
2022-09-03T09:17:43.862Z,1.60
2022-09-03T09:20:31.839Z,1.58
2022-09-03T09:23:04.411Z,1.65
2022-09-03T09:25:35.814Z,1.70
2022-09-03T09:28:08.302Z,1.50
2022-09-03T09:30:36.085Z,1.65
2022-09-03T09:33:03.800Z,1.20
2022-09-03T09:35:32.926Z,1.52
2022-09-03T09:38:01.105Z,1.30
2022-09-03T09:40:33.807Z,1.38
2022-09-03T09:43:06.285Z,1.50
2022-09-03T09:45:35.046Z,1.50
2022-09-03T09:48:04.381Z,1.50
2022-09-03T09:50:33.336Z,1.40
2022-09-03T09:53:08.855Z,1.23
2022-09-03T09:55:38.946Z,1.33
2022-09-03T09:58:14.430Z,1.92
2022-09-03T10:00:42.799Z,1.20
2022-09-03T10:03:13.829Z,1.65
2022-09-03T10:05:44.252Z,1.30
2022-09-03T10:08:21.985Z,1.33
2022-09-03T10:10:51.389Z,1.30
2022-09-03T10:13:21.650Z,1.50
2022-09-03T10:15:56.761Z,3.28
2022-09-03T10:18:44.781Z,1.55
2022-09-03T10:21:17.917Z,1.38
2022-09-03T10:23:56.496Z,2.38
2022-09-03T10:26:29.250Z,1.95
2022-09-03T10:29:02.350Z,1.33
2022-09-03T10:31:44.098Z,1.10
2022-09-03T10:34:20.751Z,1.73
2022-09-03T10:37:01.474Z,2.65
2022-09-03T10:39:52.196Z,1.50
2022-09-03T10:42:35.024Z,2.35
2022-09-03T10:45:12.059Z,1.60
2022-09-03T10:47:59.974Z,0.93
2022-09-03T10:50:31.260Z,1.63
2022-09-03T10:53:12.141Z,1.13
2022-09-03T10:55:48.811Z,1.80
2022-09-03T10:58:28.882Z,1.50
2022-09-03T11:01:04.635Z,1.50
2022-09-03T11:03:46.378Z,1.50
2022-09-03T11:06:19.837Z,1.30
2022-09-03T11:08:57.154Z,1.30
2022-09-03T11:11:31.939Z,1.35
2022-09-03T11:14:08.588Z,1.25
2022-09-03T11:16:41.180Z,1.00
2022-09-03T11:19:15.633Z,1.25
2022-09-03T11:21:44.789Z,1.40
2022-09-03T11:24:16.847Z,1.30
2022-09-03T11:26:47.136Z,1.40
2022-09-03T11:29:21.198Z,1.60
2022-09-03T11:31:59.189Z,1.00
2022-09-03T11:34:32.457Z,1.70
2022-09-03T11:37:16.656Z,1.33
2022-09-03T11:39:48.324Z,1.38
2022-09-03T11:42:29.597Z,1.40
2022-09-03T11:45:14.567Z,1.23
2022-09-03T11:47:44.144Z,1.25
2022-09-03T11:50:21.289Z,1.50
2022-09-03T11:52:52.071Z,1.20
2022-09-03T11:55:37.547Z,1.40
2022-09-03T11:58:14.439Z,1.38
2022-09-03T12:00:45.174Z,1.25
2022-09-03T12:03:17.870Z,1.10
2022-09-03T12:06:01.193Z,1.42
2022-09-03T12:08:50.587Z,1.20
2022-09-03T12:11:35.925Z,0.90
2022-09-03T12:14:13.917Z,1.30
2022-09-03T12:16:53.429Z,1.00
2022-09-03T12:19:29.743Z,1.60
2022-09-03T12:21:57.532Z,1.27
2022-09-03T12:24:34.646Z,1.15
2022-09-03T12:27:07.917Z,1.40
2022-09-03T12:29:35.570Z,1.20
2022-09-03T12:32:08.721Z,1.42
2022-09-03T12:34:36.446Z,8.85
2022-09-03T12:37:04.896Z,2.45
2022-09-03T12:42:26.013Z,1.23
2022-09-03T12:44:54.372Z,1.10
2022-09-03T12:47:39.568Z,1.50
2022-09-03T12:50:11.250Z,1.20
2022-09-03T12:52:42.636Z,1.10
2022-09-03T12:55:22.224Z,1.55
2022-09-03T12:57:57.799Z,1.25
2022-09-03T13:00:31.610Z,1.65
2022-09-03T13:03:03.926Z,1.23
2022-09-03T13:05:35.055Z,1.00
2022-09-03T13:08:07.106Z,1.35
2022-09-03T13:10:37.987Z,1.17
2022-09-03T13:13:18.681Z,1.10
2022-09-03T13:16:01.804Z,1.48
2022-09-03T13:18:35.176Z,0.70
2022-09-03T13:21:12.050Z,1.48
2022-09-03T13:23:58.768Z,1.10
2022-09-03T13:26:36.540Z,1.40
2022-09-03T13:29:21.545Z,2.13
2022-09-03T13:31:54.225Z,1.55
2022-09-03T13:34:27.835Z,1.67
2022-09-03T13:36:59.996Z,1.40
2022-09-03T13:39:31.635Z,1.52
2022-09-03T13:42:07.176Z,1.08
2022-09-03T13:44:46.222Z,1.55
2022-09-03T13:47:26.673Z,1.23
2022-09-03T13:50:20.133Z,1.10
2022-09-03T13:52:57.150Z,1.25
2022-09-03T13:55:29.736Z,1.25
2022-09-03T13:58:02.202Z,1.10
2022-09-03T14:00:39.403Z,1.42
2022-09-03T14:03:16.061Z,1.10
2022-09-03T14:06:01.406Z,1.60
2022-09-03T14:08:38.908Z,0.95
2022-09-03T14:11:15.053Z,1.40
2022-09-03T14:13:55.756Z,3.58
2022-09-03T14:16:36.511Z,1.38
2022-09-03T14:19:08.854Z,1.30
2022-09-03T14:21:41.899Z,1.58
2022-09-03T14:24:15.970Z,1.38
2022-09-03T14:26:52.716Z,1.33
2022-09-03T14:29:25.100Z,1.25
2022-09-03T14:32:06.397Z,1.48
2022-09-03T14:34:46.566Z,1.45
2022-09-03T14:37:30.598Z,1.90
2022-09-03T14:40:05.968Z,1.52
2022-09-03T14:42:49.049Z,1.40
2022-09-03T14:45:26.818Z,1.08
2022-09-03T14:48:12.124Z,1.50
2022-09-03T14:51:02.918Z,1.17
2022-09-03T14:54:12.017Z,2.20
2022-09-03T14:56:50.073Z,1.35
2022-09-03T14:59:43.630Z,1.75
2022-09-03T15:02:42.499Z,1.67
2022-09-03T15:05:16.425Z,1.38
2022-09-03T15:07:50.128Z,1.60
2022-09-03T15:10:28.681Z,1.00
2022-09-03T15:13:00.713Z,1.50
2022-09-03T15:15:38.158Z,2.55
2022-09-03T15:18:18.904Z,1.65
2022-09-03T15:20:51.997Z,2.15
2022-09-03T15:23:25.527Z,1.30
2022-09-03T15:26:11.018Z,1.15
2022-09-03T15:28:50.284Z,1.13
2022-09-03T15:31:24.708Z,1.73
2022-09-03T15:34:02.098Z,1.35
2022-09-03T15:36:37.188Z,1.73
2022-09-03T15:39:10.146Z,1.30
2022-09-03T15:41:42.445Z,1.35
2022-09-03T15:44:19.247Z,1.73
2022-09-03T15:47:01.370Z,1.30
2022-09-03T15:49:44.188Z,1.52
2022-09-03T15:52:28.054Z,1.10
2022-09-03T15:55:02.442Z,1.73
2022-09-03T15:57:35.251Z,2.33
2022-09-03T16:00:08.493Z,1.30
2022-09-03T16:02:43.551Z,3.08
2022-09-03T16:05:16.600Z,1.13
2022-09-03T16:08:07.839Z,1.15
2022-09-03T16:10:46.377Z,1.38
2022-09-03T16:13:33.457Z,1.30
2022-09-03T16:16:03.766Z,1.35
2022-09-03T16:18:35.610Z,1.05
2022-09-03T16:21:08.500Z,1.55
2022-09-03T16:23:46.807Z,1.45
2022-09-03T16:26:21.062Z,2.15
2022-09-03T16:28:53.687Z,1.50
2022-09-03T16:31:34.688Z,1.85
2022-09-03T16:34:07.608Z,1.70
2022-09-03T16:36:45.443Z,1.40
2022-09-03T16:39:27.480Z,1.40
2022-09-03T16:42:04.984Z,1.50
2022-09-03T16:44:48.965Z,2.15
2022-09-03T16:47:29.818Z,1.33
2022-09-03T16:50:09.379Z,1.45
2022-09-03T16:52:48.509Z,1.83
2022-09-03T16:55:25.849Z,1.70
2022-09-03T16:58:08.199Z,1.67
2022-09-03T17:00:54.866Z,1.65
2022-09-03T17:03:40.984Z,1.63
2022-09-03T17:06:34.576Z,1.65
2022-09-03T17:09:15.567Z,1.50
2022-09-03T17:12:00.576Z,1.98
2022-09-03T17:14:43.955Z,1.55
2022-09-03T17:17:24.953Z,1.65
2022-09-03T17:19:58.875Z,2.25
2022-09-03T17:22:41.442Z,1.55
2022-09-03T17:25:21.073Z,1.85
2022-09-03T17:28:09.213Z,1.95
2022-09-03T17:30:43.213Z,1.60
2022-09-03T17:33:33.760Z,1.52
2022-09-03T17:36:14.437Z,1.58
2022-09-03T17:39:07.504Z,1.77
2022-09-03T17:41:46.008Z,2.15
2022-09-03T17:44:24.334Z,1.55
2022-09-03T17:47:06.675Z,1.80
2022-09-03T17:49:47.814Z,1.65
2022-09-03T17:52:27.220Z,1.40
2022-09-03T17:54:58.686Z,2.10
2022-09-03T17:57:30.978Z,2.30
2022-09-03T18:00:04.559Z,1.55
2022-09-03T18:02:36.431Z,1.42
2022-09-03T18:05:18.026Z,1.63
2022-09-03T18:07:51.835Z,1.85
2022-09-03T18:10:30.344Z,1.60
2022-09-03T18:13:12.745Z,2.45
2022-09-03T18:15:52.914Z,2.08
2022-09-03T18:18:29.708Z,3.45
2022-09-03T18:21:29.293Z,3.15
2022-09-03T18:24:24.046Z,3.70
2022-09-03T18:27:16.317Z,4.97
2022-09-03T18:30:05.837Z,6.10
2022-09-03T18:32:52.778Z,7.90
2022-09-03T18:35:38.645Z,8.95
2022-09-03T18:38:25.022Z,8.57
2022-09-03T18:41:17.269Z,6.15
2022-09-03T18:44:24.012Z,4.72
2022-09-03T18:50:36.832Z,3.22
2022-09-03T18:53:32.161Z,2.85
2022-09-03T18:56:37.771Z,2.80
2022-09-03T18:59:38.074Z,2.67
2022-09-03T19:02:32.822Z,2.35
2022-09-03T19:05:32.810Z,2.17
2022-09-03T19:08:30.375Z,2.42
2022-09-03T19:11:24.543Z,2.78
2022-09-03T19:14:10.591Z,2.42
2022-09-03T19:17:07.194Z,1.88
2022-09-03T19:20:12.804Z,2.10
2022-09-03T19:23:01.739Z,2.38
2022-09-03T19:25:49.198Z,2.40
2022-09-03T19:28:37.091Z,2.00
2022-09-03T19:31:39.528Z,2.63
2022-09-03T19:34:40.548Z,2.28
2022-09-03T19:37:33.757Z,2.05
2022-09-03T19:40:36.053Z,2.75
2022-09-03T19:43:36.202Z,1.95
2022-09-03T19:46:29.486Z,2.17
2022-09-03T19:49:23.699Z,1.95
2022-09-03T19:52:20.100Z,2.40
2022-09-03T19:55:11.699Z,2.35
2022-09-03T19:57:59.973Z,2.63
2022-09-03T20:00:47.221Z,2.67
2022-09-03T20:03:33.263Z,1.88
2022-09-03T20:06:22.462Z,2.45
2022-09-03T20:09:09.775Z,2.22
2022-09-03T20:11:41.911Z,2.17
2022-09-03T20:14:16.012Z,2.30
2022-09-03T20:17:05.683Z,1.85
2022-09-03T20:19:45.666Z,2.05
2022-09-03T20:22:21.901Z,2.38
2022-09-03T20:25:07.997Z,2.88
2022-09-03T20:27:45.189Z,2.03
2022-09-03T20:30:19.582Z,3.40
2022-09-03T20:33:07.223Z,2.70
2022-09-03T20:35:46.069Z,2.22
2022-09-03T20:38:34.584Z,2.63
2022-09-03T20:41:16.471Z,2.72
2022-09-03T20:44:09.474Z,2.63
2022-09-03T20:46:52.541Z,2.63
2022-09-03T20:49:30.786Z,2.83
2022-09-03T20:52:06.065Z,2.65
2022-09-03T20:54:38.380Z,4.38
2022-09-03T20:57:28.356Z,3.50
2022-09-03T21:00:07.002Z,1.92
2022-09-03T21:02:53.262Z,2.35
2022-09-03T21:05:26.554Z,2.10
2022-09-03T21:08:05.769Z,2.08
2022-09-03T21:10:37.550Z,2.40
2022-09-03T21:13:12.077Z,2.13
2022-09-03T21:15:54.480Z,2.42
2022-09-03T21:18:36.017Z,2.70
2022-09-03T21:21:14.390Z,2.70
2022-09-03T21:23:44.374Z,2.00
2022-09-03T21:26:18.153Z,4.80
2022-09-03T21:28:52.913Z,3.22
2022-09-03T21:31:25.256Z,2.22
2022-09-03T21:34:01.255Z,2.25
2022-09-03T21:36:31.764Z,2.08
2022-09-03T21:39:06.549Z,2.53
2022-09-03T21:41:40.873Z,2.05
2022-09-03T21:44:15.597Z,1.98
2022-09-03T21:46:50.772Z,2.80
2022-09-03T21:49:26.093Z,2.78
2022-09-03T21:51:59.816Z,2.40
2022-09-03T21:54:29.904Z,2.50
2022-09-03T21:57:13.966Z,2.40
2022-09-03T21:59:59.037Z,2.30
2022-09-03T22:02:28.455Z,3.30
2022-09-03T22:04:58.491Z,2.25
2022-09-03T22:07:39.729Z,2.20
2022-09-03T22:10:16.836Z,2.00
2022-09-03T22:12:57.003Z,2.88
2022-09-03T22:15:25.080Z,4.18
2022-09-03T22:18:00.733Z,2.63
2022-09-03T22:20:29.763Z,2.60
2022-09-03T22:23:02.787Z,2.40
2022-09-03T22:25:38.408Z,2.55
2022-09-03T22:28:16.140Z,2.75
2022-09-03T22:30:49.518Z,2.35
2022-09-03T22:33:22.658Z,2.40
2022-09-03T22:36:02.253Z,1.90
2022-09-03T22:38:54.098Z,2.78
2022-09-03T22:41:41.514Z,2.65
2022-09-03T22:44:24.964Z,2.53
2022-09-03T22:47:03.167Z,2.35
2022-09-03T22:49:42.824Z,2.38
2022-09-03T22:52:29.650Z,2.10
2022-09-03T22:55:14.752Z,2.63
2022-09-03T22:57:52.802Z,2.63
2022-09-03T23:00:21.086Z,1.95
2022-09-03T23:02:54.730Z,2.60
2022-09-03T23:05:44.450Z,2.65
2022-09-03T23:08:18.678Z,2.28
2022-09-03T23:10:59.524Z,2.60
2022-09-03T23:13:32.214Z,2.63
2022-09-03T23:16:06.825Z,2.40
2022-09-03T23:18:38.469Z,2.25
2022-09-03T23:21:22.050Z,1.75
2022-09-03T23:23:57.972Z,1.90
2022-09-03T23:26:36.087Z,2.78
2022-09-03T23:29:11.939Z,2.63
2022-09-03T23:31:40.092Z,2.40
2022-09-03T23:34:10.035Z,2.33
2022-09-03T23:37:22.596Z,2.53
2022-09-03T23:40:02.873Z,2.50
2022-09-03T23:42:47.014Z,2.45
2022-09-03T23:45:28.594Z,2.35
2022-09-03T23:48:06.205Z,2.05
2022-09-03T23:50:44.680Z,2.58
2022-09-03T23:53:24.981Z,2.50
2022-09-03T23:56:09.781Z,2.55
2022-09-03T23:58:56.467Z,2.35
